CYGT

Igloolik Airport

Igloolik, Canada
METAR CYGT 192200Z 34012KT 15SM FEW080 M31/M35 A3008 RMK AC1 AC TR / -29.9/-33.9/0.0/LAST STFD OBS/NEXT SCHEDULED OBS 201600Z SLP197
Observed Flight Rules
Jan-19 @ 22:00 UTC (3 hours ago) Visual Flight Rules
Wind Visibility Clouds
340° at 12 knots 15 miles
  • Few at 8,000' AGL
Temperatures Readings
Current -31°C / -24°F
Dewpoint -35°C / -31°F
Humidity 68%
Altimeter 30.08" Hg
Pressure 1019.7 hPa
Elevation 51
METAR CYGT 192200Z 34012KT 15SM FEW080 M31/M35 A3008 RMK AC1 AC TR / -29.9/-33.9/0.0/LAST STFD OBS/NEXT SCHEDULED OBS 201600Z SLP197
Observed Flight Rules
Jan-19 @ 22:00 UTC
(3 hours ago)
VFR
Wind Visibility
340° at 12 knots 15 miles
Clouds
  • Few at 8,000' AGL
Temperature Dewpoint
-31°C / -24°F -35°C / -31°F
Humidity Altimeter Pressure
68% 30.08" Hg 1019.7 hPa